Time;durP1;ratioP1;P1;durP2;ratioP2;P2;SDS_P1;SDS_P2;PMS_P1;PMS_P2;Temp;Humidity;BMP_temperature;BMP_pressure;BME280_temperature;BME280_humidity;BME280_pressure;Samples;Min_cycle;Max_cycle;Signal;HPM_P1;HPM_P2
2023/11/01 00:00:58;;;;;;;4.22;2.10;;;11.50;99.90;;;;;;5034423;28;20412;-77
2023/11/01 00:03:34;;;;;;;9.80;1.92;;;11.50;99.90;;;;;;5034135;28;20378;-76
2023/11/01 00:06:00;;;;;;;3.50;2.13;;;11.50;99.90;;;;;;5034245;28;20420;-77
2023/11/01 00:08:26;;;;;;;6.25;2.25;;;11.50;99.90;;;;;;5034000;28;20064;-77
2023/11/01 00:10:56;;;;;;;5.43;1.95;;;11.50;99.90;;;;;;5033516;28;20443;-77
2023/11/01 00:13:21;;;;;;;4.53;1.92;;;11.50;99.90;;;;;;5033783;28;20030;-76
2023/11/01 00:15:47;;;;;;;7.15;2.35;;;11.50;99.90;;;;;;5033643;28;20021;-77
2023/11/01 00:18:16;;;;;;;6.53;2.10;;;11.40;99.90;;;;;;5033632;28;20036;-77
2023/11/01 00:20:42;;;;;;;2.10;1.48;;;11.40;99.90;;;;;;5033407;28;20053;-77
2023/11/01 00:23:08;;;;;;;3.17;1.83;;;11.40;99.90;;;;;;5033310;28;20033;-76
2023/11/01 00:25:37;;;;;;;3.50;1.80;;;11.40;99.90;;;;;;5033651;28;20056;-76
2023/11/01 00:28:06;;;;;;;5.13;1.80;;;11.40;99.90;;;;;;5033517;28;20067;-76
2023/11/01 00:30:38;;;;;;;7.68;1.17;;;11.40;99.90;;;;;;5032595;28;20385;-76
2023/11/01 00:33:07;;;;;;;8.38;1.63;;;11.30;99.90;;;;;;5033550;28;20434;-76
2023/11/01 00:35:33;;;;;;;1.75;1.20;;;11.30;99.90;;;;;;5033327;28;20049;-77
2023/11/01 00:38:02;;;;;;;6.05;1.30;;;11.30;99.90;;;;;;5033376;28;20405;-77
2023/11/01 00:40:28;;;;;;;3.22;1.48;;;11.30;99.90;;;;;;5033447;28;20087;-76
2023/11/01 00:42:54;;;;;;;2.28;1.30;;;11.30;99.90;;;;;;5033506;28;20058;-77
2023/11/01 00:45:20;;;;;;;2.08;1.20;;;11.30;99.90;;;;;;5033291;28;20052;-76
2023/11/01 00:47:46;;;;;;;2.20;1.15;;;11.30;99.90;;;;;;5033571;28;20119;-77
2023/11/01 00:50:12;;;;;;;6.53;1.20;;;11.30;99.90;;;;;;5033519;28;20026;-77
2023/11/01 00:52:44;;;;;;;3.80;1.50;;;11.20;99.90;;;;;;5033203;28;20071;-76
2023/11/01 00:55:10;;;;;;;1.25;1.02;;;11.20;99.90;;;;;;5015348;28;20425;-77
2023/11/01 00:57:40;;;;;;;3.08;1.08;;;11.20;99.90;;;;;;5033085;28;20032;-77
2023/11/01 01:00:09;;;;;;;4.63;1.20;;;11.20;99.90;;;;;;5032917;28;20060;-77
2023/11/01 01:02:36;;;;;;;3.15;1.63;;;11.20;99.90;;;;;;5032904;28;20025;-76
2023/11/01 01:05:02;;;;;;;1.58;0.95;;;11.20;99.90;;;;;;5033061;28;20021;-77
2023/11/01 01:07:34;;;;;;;1.73;1.00;;;11.10;99.90;;;;;;5033187;28;20174;-76
2023/11/01 01:10:03;;;;;;;3.88;1.38;;;11.10;99.90;;;;;;5015390;28;20037;-77
2023/11/01 01:12:29;;;;;;;4.72;1.15;;;11.10;99.90;;;;;;5033153;28;20366;-76
2023/11/01 01:14:58;;;;;;;5.30;1.20;;;11.10;99.90;;;;;;5032952;28;20072;-77
2023/11/01 01:17:24;;;;;;;5.60;1.38;;;11.10;99.90;;;;;;5033050;28;20403;-76
2023/11/01 01:19:56;;;;;;;2.42;1.33;;;11.10;99.90;;;;;;5032859;28;20030;-77
2023/11/01 01:22:28;;;;;;;2.20;0.90;;;11.10;99.90;;;;;;5033227;28;20036;-77
2023/11/01 01:24:57;;;;;;;4.38;1.33;;;11.00;99.90;;;;;;5032986;28;20259;-77
2023/11/01 01:27:26;;;;;;;7.78;1.20;;;11.10;99.90;;;;;;5032887;28;20080;-76
2023/11/01 01:30:03;;;;;;;2.88;1.10;;;11.00;99.90;;;;;;5032831;28;20028;-77
2023/11/01 01:32:33;;;;;;;2.55;1.25;;;11.00;99.90;;;;;;5032832;28;20478;-76
2023/11/01 01:34:59;;;;;;;3.90;1.38;;;11.00;99.90;;;;;;5032705;28;20049;-76
2023/11/01 01:37:28;;;;;;;4.18;0.90;;;11.00;99.90;;;;;;5032927;28;20096;-76
2023/11/01 01:39:59;;;;;;;1.65;0.93;;;11.00;99.90;;;;;;5032764;28;20139;-76
2023/11/01 01:42:25;;;;;;;3.13;1.10;;;11.00;99.90;;;;;;5034967;28;20041;-77
2023/11/01 01:44:51;;;;;;;2.25;0.75;;;10.90;99.90;;;;;;5036517;28;20023;-76
2023/11/01 01:47:18;;;;;;;2.97;0.80;;;10.90;99.90;;;;;;5036665;28;20044;-77
2023/11/01 01:49:52;;;;;;;3.80;0.70;;;10.90;99.90;;;;;;5036948;28;20030;-76
2023/11/01 01:52:21;;;;;;;1.13;0.70;;;10.90;99.90;;;;;;5036469;28;20013;-76
2023/11/01 01:55:10;;;;;;;2.58;1.05;;;10.80;99.90;;;;;;5036418;28;20104;-77
2023/11/01 01:57:39;;;;;;;1.50;0.65;;;10.90;99.90;;;;;;5035322;28;20021;-76
2023/11/01 02:00:15;;;;;;;1.92;0.98;;;10.90;99.90;;;;;;5033160;28;20367;-76
2023/11/01 02:02:44;;;;;;;4.68;1.05;;;10.80;99.90;;;;;;5033613;28;20539;-77
2023/11/01 02:05:15;;;;;;;1.60;1.02;;;10.90;99.90;;;;;;5034896;28;20017;-77
2023/11/01 02:07:46;;;;;;;5.53;1.23;;;10.80;99.90;;;;;;5036291;28;20400;-77
2023/11/01 02:10:15;;;;;;;2.50;1.05;;;10.80;99.90;;;;;;5035709;28;20029;-77
2023/11/01 02:12:45;;;;;;;2.53;1.05;;;10.80;99.90;;;;;;5035528;28;20017;-77
2023/11/01 02:15:20;;;;;;;1.98;0.70;;;10.80;99.90;;;;;;5036539;28;20362;-77
2023/11/01 02:17:46;;;;;;;1.77;0.70;;;10.80;99.90;;;;;;5036154;28;20432;-77
2023/11/01 02:20:18;;;;;;;2.10;0.75;;;10.80;99.90;;;;;;5035532;28;20362;-77
2023/11/01 02:22:46;;;;;;;3.60;0.90;;;10.80;99.90;;;;;;5035583;28;20037;-77
2023/11/01 02:25:13;;;;;;;3.70;0.60;;;10.80;99.90;;;;;;5035935;28;20021;-77
2023/11/01 02:27:40;;;;;;;3.08;0.70;;;10.80;99.90;;;;;;5036004;28;20025;-76
2023/11/01 02:30:16;;;;;;;1.88;0.80;;;10.80;99.90;;;;;;5036154;28;20362;-76
2023/11/01 02:32:49;;;;;;;2.67;0.80;;;10.80;99.90;;;;;;5033380;28;20033;-77
2023/11/01 02:35:15;;;;;;;2.50;0.60;;;10.80;99.90;;;;;;5034665;28;20079;-77
2023/11/01 02:37:51;;;;;;;0.77;0.50;;;10.80;99.90;;;;;;5035638;28;20384;-77
2023/11/01 02:40:23;;;;;;;2.00;1.00;;;10.80;99.90;;;;;;5017684;28;20033;-77
2023/11/01 02:42:56;;;;;;;1.95;1.10;;;10.80;99.90;;;;;;5035335;28;20033;-76
2023/11/01 02:45:22;;;;;;;4.55;1.20;;;10.80;99.90;;;;;;5017686;28;20040;-76
2023/11/01 02:47:52;;;;;;;3.72;1.05;;;10.80;99.90;;;;;;5035435;28;20417;-77
2023/11/01 02:50:38;;;;;;;2.35;1.48;;;10.80;99.90;;;;;;5035602;28;20028;-77
2023/11/01 02:53:07;;;;;;;1.75;1.08;;;10.70;99.90;;;;;;5017330;28;20041;-76
2023/11/01 02:55:33;;;;;;;2.03;1.13;;;10.70;99.90;;;;;;5035375;28;20022;-75
2023/11/01 02:58:05;;;;;;;4.47;1.10;;;10.70;99.90;;;;;;5034280;28;20124;-77
2023/11/01 03:00:37;;;;;;;1.05;0.70;;;10.60;99.90;;;;;;5035433;28;20044;-76
2023/11/01 03:03:05;;;;;;;3.03;1.00;;;10.60;99.90;;;;;;5035176;28;20064;-77
2023/11/01 03:05:37;;;;;;;3.22;0.95;;;10.60;99.90;;;;;;5035393;28;20033;-77
2023/11/01 03:08:03;;;;;;;3.57;1.00;;;10.60;99.90;;;;;;5035048;28;20026;-76
2023/11/01 03:10:38;;;;;;;6.43;1.10;;;10.60;99.90;;;;;;5034965;28;20620;-77
2023/11/01 03:13:04;;;;;;;6.47;1.00;;;10.50;99.90;;;;;;5035057;28;20071;-76
2023/11/01 03:15:33;;;;;;;3.25;0.70;;;10.50;99.90;;;;;;5035194;28;20510;-77
2023/11/01 03:18:01;;;;;;;5.85;0.77;;;10.50;99.90;;;;;;5035245;28;20453;-77
2023/11/01 03:20:33;;;;;;;3.47;1.33;;;10.50;99.90;;;;;;5016560;28;20048;-77
2023/11/01 03:23:02;;;;;;;6.55;1.05;;;10.50;99.90;;;;;;5035282;28;20112;-77
2023/11/01 03:25:33;;;;;;;8.50;1.92;;;10.50;99.90;;;;;;5034970;28;20037;-77
2023/11/01 03:27:59;;;;;;;5.18;1.10;;;10.50;99.90;;;;;;5035067;28;20389;-76
2023/11/01 03:30:25;;;;;;;1.70;0.88;;;10.50;99.90;;;;;;5034840;28;20521;-77
2023/11/01 03:32:51;;;;;;;2.15;1.00;;;10.40;99.90;;;;;;5034660;28;20025;-76
2023/11/01 03:35:19;;;;;;;2.45;1.05;;;10.40;99.90;;;;;;5034575;28;20140;-77
2023/11/01 03:37:44;;;;;;;2.17;0.95;;;10.50;99.90;;;;;;5034733;28;20359;-76
2023/11/01 03:40:11;;;;;;;2.30;1.23;;;10.50;99.90;;;;;;5034699;28;20060;-77
2023/11/01 03:42:37;;;;;;;9.65;1.40;;;10.40;99.90;;;;;;5034370;28;20053;-76
2023/11/01 03:45:09;;;;;;;4.63;1.08;;;10.40;99.90;;;;;;5034911;28;20056;-76
2023/11/01 03:47:41;;;;;;;3.95;1.38;;;10.40;99.90;;;;;;5034527;28;20034;-76
2023/11/01 03:50:11;;;;;;;5.80;1.25;;;10.30;99.90;;;;;;5016861;28;20494;-77
2023/11/01 03:52:43;;;;;;;5.63;1.00;;;10.30;99.90;;;;;;5034506;28;20033;-77
2023/11/01 03:55:18;;;;;;;1.70;1.10;;;10.30;99.90;;;;;;5034338;28;20091;-76
2023/11/01 03:57:47;;;;;;;5.50;1.00;;;10.40;99.90;;;;;;5034270;28;20029;-76
2023/11/01 04:00:20;;;;;;;6.60;1.20;;;10.40;99.90;;;;;;5034268;28;20026;-77
2023/11/01 04:02:50;;;;;;;1.52;0.73;;;10.40;99.90;;;;;;5016442;28;20033;-77
2023/11/01 04:05:16;;;;;;;0.73;0.55;;;10.50;99.90;;;;;;5033889;28;20433;-76
2023/11/01 04:07:45;;;;;;;3.13;1.38;;;10.50;99.90;;;;;;5016182;28;20025;-76
2023/11/01 04:10:17;;;;;;;2.40;0.77;;;10.50;99.90;;;;;;5033863;28;20028;-76
2023/11/01 04:12:46;;;;;;;1.13;0.70;;;10.60;99.90;;;;;;5033911;28;20093;-76
2023/11/01 04:15:12;;;;;;;1.70;0.98;;;10.60;99.90;;;;;;5033738;28;20013;-76
2023/11/01 04:17:52;;;;;;;2.55;1.02;;;10.70;99.90;;;;;;5033691;28;20025;-77
2023/11/01 04:20:17;;;;;;;2.35;0.82;;;10.70;99.90;;;;;;5033758;28;20425;-77
2023/11/01 04:22:44;;;;;;;3.45;0.70;;;10.70;99.90;;;;;;5033530;28;20104;-77
2023/11/01 04:25:12;;;;;;;1.25;0.50;;;10.70;99.90;;;;;;5033893;28;20018;-77
2023/11/01 04:27:41;;;;;;;1.98;0.63;;;10.70;99.90;;;;;;5033721;28;20036;-77
2023/11/01 04:30:22;;;;;;;4.78;0.73;;;10.70;99.90;;;;;;5033896;28;20072;-77
2023/11/01 04:32:51;;;;;;;3.97;1.42;;;10.80;99.90;;;;;;5033517;28;20018;-76
2023/11/01 04:35:19;;;;;;;1.25;0.80;;;10.80;99.90;;;;;;5015537;28;20489;-76
2023/11/01 04:37:48;;;;;;;3.35;0.60;;;10.80;99.90;;;;;;5033126;28;20021;-77
2023/11/01 04:40:14;;;;;;;1.02;0.50;;;10.80;99.90;;;;;;5033481;28;20029;-76
2023/11/01 04:42:44;;;;;;;2.30;0.80;;;10.70;99.90;;;;;;5015397;28;20037;-76
2023/11/01 04:45:13;;;;;;;2.22;0.80;;;10.80;99.90;;;;;;5033235;28;20120;-77
2023/11/01 04:47:59;;;;;;;1.33;0.65;;;10.70;99.90;;;;;;5033289;28;20425;-76
2023/11/01 04:50:32;;;;;;;1.02;0.65;;;10.70;99.90;;;;;;5033336;28;20110;-77
2023/11/01 04:53:01;;;;;;;4.20;0.68;;;10.70;99.90;;;;;;5033391;28;20072;-77
2023/11/01 04:55:27;;;;;;;3.60;0.50;;;10.70;99.90;;;;;;5033040;28;20092;-77
2023/11/01 04:58:10;;;;;;;2.08;0.70;;;10.70;99.90;;;;;;5033059;28;20029;-77
2023/11/01 05:00:42;;;;;;;0.75;0.40;;;10.80;99.90;;;;;;5032872;28;20029;-77
2023/11/01 05:03:08;;;;;;;1.10;0.65;;;10.80;99.90;;;;;;5033025;28;20105;-76
2023/11/01 05:05:37;;;;;;;4.45;0.80;;;10.90;99.90;;;;;;5033146;28;20377;-77
2023/11/01 05:08:09;;;;;;;1.65;0.70;;;10.90;99.90;;;;;;5033366;28;20025;-76
2023/11/01 05:10:41;;;;;;;1.05;0.43;;;10.90;99.90;;;;;;5032688;28;20466;-76
2023/11/01 05:13:07;;;;;;;1.35;0.32;;;10.90;99.90;;;;;;5033020;28;20481;-77
2023/11/01 05:15:45;;;;;;;1.20;0.60;;;10.90;99.90;;;;;;5032819;28;20025;-76
2023/11/01 05:18:14;;;;;;;0.77;0.40;;;11.00;99.90;;;;;;5032726;28;20370;-77
2023/11/01 05:20:40;;;;;;;4.15;0.63;;;10.90;99.90;;;;;;5032910;28;20068;-76
2023/11/01 05:23:09;;;;;;;2.15;0.50;;;11.00;99.90;;;;;;5033101;28;20112;-78
2023/11/01 05:25:44;;;;;;;0.70;0.40;;;11.00;99.90;;;;;;5033151;28;20037;-76
2023/11/01 05:28:19;;;;;;;4.43;0.70;;;11.10;99.90;;;;;;5031720;28;20026;-77
2023/11/01 05:30:54;;;;;;;3.05;0.70;;;11.10;99.90;;;;;;5032641;28;20053;-77
2023/11/01 05:33:41;;;;;;;0.98;0.73;;;11.10;99.90;;;;;;5032733;28;20029;-76
2023/11/01 05:36:09;;;;;;;0.85;0.80;;;11.10;99.90;;;;;;5033009;28;20041;-77
2023/11/01 05:38:38;;;;;;;2.53;0.60;;;11.10;99.90;;;;;;5033278;28;20378;-77
2023/11/01 05:41:08;;;;;;;2.25;0.50;;;11.10;99.90;;;;;;5032678;28;20088;-77
2023/11/01 05:43:36;;;;;;;4.72;0.63;;;11.20;99.90;;;;;;5033003;28;20029;-77
2023/11/01 05:46:02;;;;;;;3.90;0.70;;;11.10;99.90;;;;;;5032392;28;20079;-76
2023/11/01 05:48:28;;;;;;;1.02;0.50;;;11.20;99.90;;;;;;5032577;28;20038;-77
2023/11/01 05:50:54;;;;;;;2.60;0.52;;;11.20;99.90;;;;;;5032749;28;20052;-77
2023/11/01 05:53:23;;;;;;;2.33;0.70;;;11.20;99.90;;;;;;5032988;28;20080;-76
2023/11/01 05:55:58;;;;;;;1.85;0.73;;;11.20;99.90;;;;;;5032578;28;20385;-77
2023/11/01 05:58:28;;;;;;;2.65;0.70;;;11.20;99.90;;;;;;5032538;28;20442;-77
2023/11/01 06:00:57;;;;;;;2.25;0.63;;;11.20;99.90;;;;;;5032683;28;20389;-77
2023/11/01 06:03:26;;;;;;;2.00;0.75;;;11.30;99.90;;;;;;5032790;28;20022;-76
2023/11/01 06:05:58;;;;;;;2.20;0.60;;;11.30;99.90;;;;;;5032683;28;20026;-76
2023/11/01 06:08:24;;;;;;;1.50;0.98;;;11.30;99.90;;;;;;5032739;28;20129;-76
2023/11/01 06:10:59;;;;;;;2.45;0.80;;;11.40;99.90;;;;;;5032583;28;20101;-77
2023/11/01 06:13:31;;;;;;;1.35;0.70;;;11.30;99.90;;;;;;5032514;28;20063;-76
2023/11/01 06:16:04;;;;;;;1.88;0.70;;;11.40;99.90;;;;;;5032588;28;20044;-77
2023/11/01 06:18:34;;;;;;;1.00;0.43;;;11.30;99.90;;;;;;5032534;28;20017;-76
2023/11/01 06:21:06;;;;;;;3.42;0.85;;;11.40;99.90;;;;;;5031156;28;20040;-77
2023/11/01 06:23:36;;;;;;;3.47;0.60;;;11.40;99.90;;;;;;5032706;28;20026;-77
2023/11/01 06:26:08;;;;;;;0.88;0.55;;;11.40;99.90;;;;;;5032471;28;20053;-76
2023/11/01 06:28:39;;;;;;;2.42;0.70;;;11.40;99.90;;;;;;5033432;28;20377;-76
2023/11/01 06:31:05;;;;;;;1.80;0.70;;;11.40;99.90;;;;;;5020156;28;20072;-75
2023/11/01 06:33:34;;;;;;;2.83;0.60;;;11.40;99.90;;;;;;5014950;28;20577;-76
2023/11/01 06:36:00;;;;;;;1.17;0.60;;;11.40;99.90;;;;;;5014581;28;20057;-76
2023/11/01 06:38:32;;;;;;;1.80;0.82;;;11.40;99.90;;;;;;5014534;28;20022;-75
2023/11/01 06:41:01;;;;;;;2.30;1.00;;;11.50;99.90;;;;;;5014624;28;20456;-76
2023/11/01 06:43:33;;;;;;;4.63;1.13;;;11.50;99.90;;;;;;5015236;28;20113;-76
2023/11/01 06:45:59;;;;;;;5.22;0.60;;;11.50;99.90;;;;;;5014962;28;20033;-76
2023/11/01 06:48:33;;;;;;;1.50;0.90;;;11.50;99.90;;;;;;5015074;28;20109;-76
2023/11/01 06:50:59;;;;;;;1.15;0.70;;;11.60;99.90;;;;;;5015579;28;20025;-77
2023/11/01 06:53:28;;;;;;;3.15;0.75;;;11.60;99.90;;;;;;5015676;28;20040;-77
2023/11/01 06:55:54;;;;;;;1.95;0.82;;;11.60;99.90;;;;;;5015359;28;20415;-77
2023/11/01 06:58:23;;;;;;;4.22;0.70;;;11.70;99.90;;;;;;5015450;28;20041;-76
2023/11/01 07:00:51;;;;;;;2.15;0.70;;;11.70;99.90;;;;;;4997532;28;20117;-76
2023/11/01 07:03:23;;;;;;;4.80;0.57;;;11.70;99.90;;;;;;5015128;28;20422;-76
2023/11/01 07:05:52;;;;;;;3.50;0.70;;;11.80;99.90;;;;;;5015162;28;20037;-76
2023/11/01 07:08:18;;;;;;;2.40;0.70;;;11.80;99.90;;;;;;5015421;28;20028;-78
2023/11/01 07:10:44;;;;;;;1.73;0.50;;;11.90;99.90;;;;;;5015181;28;20032;-77
2023/11/01 07:13:19;;;;;;;1.48;0.60;;;11.90;99.90;;;;;;5015020;28;20105;-77
2023/11/01 07:15:49;;;;;;;0.63;0.43;;;12.00;99.90;;;;;;5014998;28;20393;-77
2023/11/01 07:18:15;;;;;;;2.25;0.70;;;12.10;99.90;;;;;;5015408;28;20030;-79
2023/11/01 07:20:44;;;;;;;5.68;0.60;;;12.10;99.90;;;;;;5015290;28;20100;-78
2023/11/01 07:23:10;;;;;;;3.33;0.90;;;12.20;99.90;;;;;;5015218;28;20056;-77
2023/11/01 07:25:36;;;;;;;1.08;0.55;;;12.30;99.90;;;;;;5014789;28;20022;-77
2023/11/01 07:28:02;;;;;;;1.35;0.55;;;12.30;99.90;;;;;;4995506;28;20081;-77
2023/11/01 07:30:28;;;;;;;3.88;0.77;;;12.30;99.90;;;;;;5013578;28;20026;-77
2023/11/01 07:32:57;;;;;;;6.35;0.85;;;12.30;99.90;;;;;;5013982;28;20089;-77
2023/11/01 07:35:23;;;;;;;5.32;0.80;;;12.30;99.90;;;;;;5014196;28;20114;-77
2023/11/01 07:37:52;;;;;;;0.90;0.52;;;12.40;99.90;;;;;;5014432;28;20072;-77
2023/11/01 07:40:20;;;;;;;1.45;0.77;;;12.40;99.90;;;;;;5013819;28;20057;-77
2023/11/01 07:42:50;;;;;;;2.15;0.70;;;12.40;99.90;;;;;;5014450;28;20096;-77
2023/11/01 07:45:15;;;;;;;4.65;1.23;;;12.50;99.90;;;;;;5014767;28;20021;-77
2023/11/01 07:47:47;;;;;;;4.47;0.70;;;12.50;99.90;;;;;;5013490;28;20436;-78
2023/11/01 07:50:13;;;;;;;2.67;0.63;;;12.50;99.90;;;;;;5014506;28;20018;-77
2023/11/01 07:52:40;;;;;;;3.88;1.00;;;12.60;99.90;;;;;;5014222;28;20413;-77
2023/11/01 07:55:06;;;;;;;1.83;0.70;;;12.60;99.90;;;;;;5014540;28;20029;-77
2023/11/01 07:57:32;;;;;;;2.38;0.80;;;12.70;99.90;;;;;;5014385;28;20025;-78
2023/11/01 07:59:58;;;;;;;2.38;0.60;;;12.70;99.90;;;;;;5014546;28;20355;-77
2023/11/01 08:02:31;;;;;;;1.48;0.55;;;12.70;99.90;;;;;;5014361;28;20120;-77
2023/11/01 08:04:59;;;;;;;4.72;0.63;;;12.80;99.90;;;;;;5013937;28;20022;-78
2023/11/01 08:07:26;;;;;;;2.72;0.80;;;12.80;99.90;;;;;;5013963;28;20438;-77
2023/11/01 08:09:52;;;;;;;2.15;0.70;;;12.80;99.90;;;;;;5013890;28;20105;-77
2023/11/01 08:12:19;;;;;;;2.15;0.75;;;12.90;99.90;;;;;;5014068;28;20398;-77
2023/11/01 08:14:48;;;;;;;2.45;0.70;;;12.90;99.90;;;;;;5013903;28;20021;-78
2023/11/01 08:17:14;;;;;;;3.15;0.63;;;12.90;99.90;;;;;;5013822;28;20018;-77
2023/11/01 08:19:40;;;;;;;1.13;0.55;;;13.00;99.90;;;;;;5013078;28;20076;-78
2023/11/01 08:22:09;;;;;;;4.22;0.85;;;13.00;99.90;;;;;;4995181;28;20426;-78
2023/11/01 08:24:35;;;;;;;3.72;0.80;;;13.00;99.90;;;;;;4994201;28;20021;-78
2023/11/01 08:27:01;;;;;;;5.68;0.68;;;13.10;99.90;;;;;;4994311;28;20030;-76
2023/11/01 08:29:26;;;;;;;2.90;0.60;;;13.10;99.90;;;;;;4994208;28;20394;-74
2023/11/01 08:31:52;;;;;;;1.52;0.85;;;13.20;99.90;;;;;;4993703;28;20022;-74
2023/11/01 08:34:25;;;;;;;3.08;0.80;;;13.20;99.90;;;;;;4996156;28;20030;-74
2023/11/01 08:36:51;;;;;;;3.17;0.77;;;13.30;99.90;;;;;;5013431;28;20033;-74
2023/11/01 08:39:20;;;;;;;3.10;0.88;;;13.30;99.90;;;;;;5013373;28;20029;-74
2023/11/01 08:41:46;;;;;;;1.77;0.55;;;13.30;99.90;;;;;;5013735;28;20493;-74
2023/11/01 08:44:12;;;;;;;2.25;0.80;;;13.30;99.90;;;;;;5013831;28;20489;-73
2023/11/01 08:46:38;;;;;;;1.90;0.77;;;13.40;99.90;;;;;;5012458;28;20034;-74
2023/11/01 08:49:04;;;;;;;2.65;0.57;;;13.40;99.90;;;;;;5013737;28;20018;-74
2023/11/01 08:51:30;;;;;;;3.78;0.90;;;13.50;99.90;;;;;;5012838;28;20033;-74
2023/11/01 08:53:59;;;;;;;2.78;0.70;;;13.50;99.90;;;;;;5013542;28;20426;-74
2023/11/01 08:56:25;;;;;;;3.25;0.90;;;13.50;99.90;;;;;;5013608;28;20390;-73
2023/11/01 08:58:52;;;;;;;6.07;0.82;;;13.60;99.90;;;;;;5013573;28;20017;-74
2023/11/01 09:01:18;;;;;;;3.13;0.65;;;13.60;99.90;;;;;;5013494;28;20044;-74
2023/11/01 09:03:44;;;;;;;3.78;0.82;;;13.70;99.90;;;;;;5013482;28;20029;-74
2023/11/01 09:06:15;;;;;;;2.92;0.85;;;13.80;99.90;;;;;;5013242;28;20026;-76
2023/11/01 09:08:44;;;;;;;4.57;0.73;;;13.80;99.90;;;;;;5013117;28;20046;-74
2023/11/01 09:11:10;;;;;;;3.28;0.68;;;13.90;99.90;;;;;;5013243;28;20025;-78
2023/11/01 09:13:36;;;;;;;6.57;0.88;;;13.90;99.90;;;;;;5013579;28;20113;-74
2023/11/01 09:16:04;;;;;;;4.47;0.90;;;14.00;99.90;;;;;;5013167;28;20443;-74
2023/11/01 09:18:30;;;;;;;3.33;0.98;;;14.00;99.90;;;;;;5013149;28;20026;-74
2023/11/01 09:20:56;;;;;;;4.13;0.90;;;14.10;99.90;;;;;;5021438;28;20054;-78
2023/11/01 09:23:25;;;;;;;4.07;0.80;;;14.20;99.90;;;;;;5032683;28;20504;-77
2023/11/01 09:25:50;;;;;;;7.88;1.20;;;14.30;99.90;;;;;;5032579;28;20021;-75
2023/11/01 09:28:16;;;;;;;3.97;0.95;;;14.30;99.90;;;;;;5032861;28;20052;-74
2023/11/01 09:30:42;;;;;;;3.35;0.85;;;14.30;99.90;;;;;;5032896;28;20018;-73
2023/11/01 09:33:08;;;;;;;4.20;1.20;;;14.30;99.90;;;;;;5031889;28;20036;-74
2023/11/01 09:35:37;;;;;;;5.32;1.27;;;14.40;99.90;;;;;;5014697;28;20394;-73
2023/11/01 09:38:03;;;;;;;2.40;0.90;;;14.40;99.90;;;;;;5032570;28;20045;-74
2023/11/01 09:40:29;;;;;;;2.47;0.82;;;14.40;99.90;;;;;;5032685;28;20543;-73
2023/11/01 09:42:58;;;;;;;2.95;0.75;;;14.50;99.90;;;;;;5033022;28;20022;-74
2023/11/01 09:45:25;;;;;;;4.40;0.77;;;14.50;99.90;;;;;;5032797;28;20470;-74
2023/11/01 09:47:54;;;;;;;2.28;1.00;;;14.60;99.90;;;;;;5032676;28;20105;-74
2023/11/01 09:50:23;;;;;;;4.65;1.13;;;14.70;99.90;;;;;;5031899;28;20085;-74
2023/11/01 09:52:49;;;;;;;2.85;1.13;;;14.80;99.90;;;;;;5032129;28;20029;-74
2023/11/01 09:55:15;;;;;;;6.47;1.20;;;14.80;99.90;;;;;;5014951;28;20113;-74
2023/11/01 09:57:47;;;;;;;5.32;1.38;;;14.80;99.90;;;;;;5032724;28;20351;-74
2023/11/01 10:00:15;;;;;;;4.50;1.37;;;14.90;99.90;;;;;;5032326;28;20017;-74
2023/11/01 10:02:42;;;;;;;5.95;1.27;;;15.00;99.90;;;;;;5015886;28;20450;-74
2023/11/01 10:05:10;;;;;;;3.05;1.00;;;15.00;99.90;;;;;;5036384;28;20029;-73
2023/11/01 10:07:39;;;;;;;7.13;1.00;;;15.10;99.90;;;;;;5036618;28;20429;-74
2023/11/01 10:10:18;;;;;;;6.03;1.45;;;15.10;99.90;;;;;;5036489;28;20025;-74
2023/11/01 10:12:46;;;;;;;5.57;1.30;;;15.20;99.90;;;;;;5036107;28;20480;-74
2023/11/01 10:15:22;;;;;;;4.60;1.35;;;15.30;99.90;;;;;;5036172;28;20024;-74
2023/11/01 10:17:51;;;;;;;5.25;1.85;;;15.30;99.90;;;;;;5036396;28;20025;-74
2023/11/01 10:20:24;;;;;;;4.30;1.35;;;15.30;99.90;;;;;;5036081;28;20091;-73
2023/11/01 10:22:49;;;;;;;7.47;1.92;;;15.30;99.90;;;;;;5036299;28;20076;-73
2023/11/01 10:25:20;;;;;;;5.18;1.50;;;15.30;99.90;;;;;;5036121;28;20029;-73
2023/11/01 10:27:50;;;;;;;2.72;1.20;;;15.30;99.90;;;;;;5036115;28;20028;-73
2023/11/01 10:30:16;;;;;;;8.13;1.45;;;15.30;99.90;;;;;;5036117;28;20025;-74
2023/11/01 10:32:54;;;;;;;4.82;1.77;;;15.20;99.90;;;;;;5036174;28;20382;-74
2023/11/01 10:35:23;;;;;;;10.60;2.15;;;15.30;99.90;;;;;;5035632;28;20054;-73
2023/11/01 10:38:05;;;;;;;7.60;1.38;;;15.30;99.90;;;;;;5035587;28;20022;-73
2023/11/01 10:40:31;;;;;;;3.45;1.00;;;15.30;99.90;;;;;;5035481;28;20127;-74
2023/11/01 10:43:02;;;;;;;7.28;1.38;;;15.30;99.90;;;;;;5035631;28;20404;-74
2023/11/01 10:45:29;;;;;;;4.30;1.00;;;15.40;99.90;;;;;;5035408;28;20053;-74
2023/11/01 10:47:55;;;;;;;5.47;1.23;;;15.50;99.90;;;;;;5035447;28;20377;-74
2023/11/01 10:50:24;;;;;;;7.65;1.35;;;15.60;99.90;;;;;;5035504;28;20053;-74
2023/11/01 10:52:52;;;;;;;7.07;1.40;;;15.70;99.90;;;;;;5035324;28;20387;-74
2023/11/01 10:55:27;;;;;;;4.88;1.20;;;15.80;99.90;;;;;;5035270;28;20108;-73
2023/11/01 10:57:55;;;;;;;3.92;1.25;;;15.90;99.90;;;;;;5035198;28;20014;-74
2023/11/01 11:00:41;;;;;;;5.32;1.35;;;16.00;99.90;;;;;;5035052;28;20029;-74
2023/11/01 11:03:55;;;;;;;7.38;1.85;;;16.10;99.90;;;;;;5035579;28;20084;-74
2023/11/01 11:06:38;;;;;;;6.50;1.55;;;16.10;99.90;;;;;;5019107;28;20033;-74
2023/11/01 11:09:24;;;;;;;6.53;1.77;;;16.10;99.90;;;;;;5035127;28;20037;-74
2023/11/01 11:12:20;;;;;;;7.20;1.42;;;16.10;99.90;;;;;;5035276;28;20485;-74
2023/11/01 11:14:55;;;;;;;7.85;1.52;;;16.30;99.90;;;;;;5034445;28;20040;-74
2023/11/01 11:17:23;;;;;;;6.93;2.08;;;16.30;99.90;;;;;;5035105;28;20021;-74
2023/11/01 11:20:11;;;;;;;4.68;1.20;;;16.40;99.90;;;;;;5035083;28;20025;-74
2023/11/01 11:23:01;;;;;;;8.80;1.45;;;16.50;99.90;;;;;;5034815;28;20127;-74
2023/11/01 11:25:49;;;;;;;5.40;1.30;;;16.70;99.90;;;;;;5034812;28;20416;-74
2023/11/01 11:28:21;;;;;;;5.90;1.20;;;16.80;99.90;;;;;;5035154;28;20093;-74
2023/11/01 11:31:07;;;;;;;8.00;1.40;;;16.80;99.90;;;;;;5034758;28;20029;-74
2023/11/01 11:33:34;;;;;;;5.25;1.58;;;16.90;99.90;;;;;;5034576;28;20032;-73
2023/11/01 11:36:11;;;;;;;8.35;1.58;;;16.90;99.90;;;;;;5034618;28;20049;-73
2023/11/01 11:38:38;;;;;;;5.72;1.27;;;17.00;99.90;;;;;;5034957;28;20052;-73
2023/11/01 11:41:15;;;;;;;5.72;1.27;;;16.90;99.90;;;;;;5034538;28;20390;-76
2023/11/01 11:44:00;;;;;;;7.18;1.50;;;16.90;99.90;;;;;;5034486;28;20040;-73
2023/11/01 11:46:35;;;;;;;9.27;1.15;;;17.00;99.90;;;;;;5034513;28;20425;-73
2023/11/01 11:49:05;;;;;;;5.15;1.25;;;17.00;99.90;;;;;;5034640;28;20365;-73
2023/11/01 11:51:35;;;;;;;8.55;1.38;;;17.10;99.90;;;;;;5034144;28;20382;-74
2023/11/01 11:54:15;;;;;;;8.52;1.73;;;17.10;99.90;;;;;;5034482;28;20362;-74
2023/11/01 11:56:41;;;;;;;11.30;1.30;;;17.20;99.90;;;;;;5034339;28;20036;-76
2023/11/01 11:59:09;;;;;;;8.27;1.30;;;17.20;99.90;;;;;;5033337;28;20390;-73
2023/11/01 12:01:38;;;;;;;8.30;1.88;;;17.20;99.90;;;;;;5034036;28;20037;-73
2023/11/01 12:04:07;;;;;;;8.18;1.60;;;17.30;99.90;;;;;;5034271;28;20442;-76
2023/11/01 12:06:40;;;;;;;8.93;1.42;;;17.30;99.90;;;;;;5033670;28;20436;-76
2023/11/01 12:09:16;;;;;;;8.88;1.30;;;17.30;99.90;;;;;;5033382;28;20034;-74
2023/11/01 12:11:43;;;;;;;8.60;1.58;;;17.40;99.90;;;;;;5033557;28;20401;-74
2023/11/01 12:14:20;;;;;;;8.05;1.40;;;17.40;99.90;;;;;;5032217;28;20052;-74
2023/11/01 12:16:47;;;;;;;8.30;1.30;;;17.50;99.90;;;;;;5032144;28;20021;-75
2023/11/01 12:19:23;;;;;;;13.05;2.58;;;17.60;99.90;;;;;;5032777;28;20500;-76
2023/11/01 12:21:54;;;;;;;12.55;1.63;;;17.60;99.90;;;;;;5032014;28;20038;-76
2023/11/01 12:24:26;;;;;;;7.82;1.30;;;17.60;99.90;;;;;;5033332;28;20447;-73
2023/11/01 12:27:01;;;;;;;8.77;1.65;;;17.60;99.90;;;;;;5033688;28;20056;-73
2023/11/01 12:29:40;;;;;;;10.57;1.58;;;17.60;99.90;;;;;;5033828;28;20057;-73
2023/11/01 12:32:10;;;;;;;8.93;1.50;;;17.60;99.90;;;;;;5033658;28;20026;-74
2023/11/01 12:34:57;;;;;;;12.93;2.15;;;17.60;99.90;;;;;;5032992;28;20037;-73
2023/11/01 12:37:29;;;;;;;8.45;1.65;;;17.50;99.90;;;;;;5017525;28;20029;-73
2023/11/01 12:40:18;;;;;;;6.10;1.55;;;17.50;99.90;;;;;;5033622;28;20041;-73
2023/11/01 12:42:51;;;;;;;11.82;1.55;;;17.40;99.90;;;;;;5033283;28;20029;-73
2023/11/01 12:45:26;;;;;;;11.05;1.85;;;17.40;99.90;;;;;;5033451;28;20099;-74
2023/11/01 12:47:53;;;;;;;10.18;1.75;;;17.40;99.90;;;;;;5033424;28;20468;-76
2023/11/01 12:50:27;;;;;;;10.52;1.73;;;17.30;99.90;;;;;;5033552;28;20024;-76
2023/11/01 12:52:53;;;;;;;10.35;2.17;;;17.40;99.90;;;;;;5033174;28;20104;-75
2023/11/01 12:55:20;;;;;;;6.82;1.50;;;17.30;99.90;;;;;;5033333;28;20408;-76
2023/11/01 12:57:54;;;;;;;8.20;1.67;;;17.30;99.90;;;;;;5033596;28;20036;-76
2023/11/01 13:00:21;;;;;;;4.63;1.30;;;17.30;99.90;;;;;;5033334;28;20076;-75